sensor_id;sensor_type;location;lat;lon;timestamp;temperature;humidity
4695;DHT22;2361;49.540;8.390;2023-08-08T00:01:55;16.00;99.90
4695;DHT22;2361;49.540;8.390;2023-08-08T00:04:23;15.90;99.90
4695;DHT22;2361;49.540;8.390;2023-08-08T00:06:50;15.90;99.90
4695;DHT22;2361;49.540;8.390;2023-08-08T00:09:17;15.90;99.90
4695;DHT22;2361;49.540;8.390;2023-08-08T00:11:44;15.80;99.90
4695;DHT22;2361;49.540;8.390;2023-08-08T00:14:11;15.80;99.90
4695;DHT22;2361;49.540;8.390;2023-08-08T00:16:38;15.80;99.90
4695;DHT22;2361;49.540;8.390;2023-08-08T00:19:05;15.80;99.90
4695;DHT22;2361;49.540;8.390;2023-08-08T00:21:32;15.80;99.90
4695;DHT22;2361;49.540;8.390;2023-08-08T00:23:58;15.70;99.90
4695;DHT22;2361;49.540;8.390;2023-08-08T00:26:25;15.80;99.90
4695;DHT22;2361;49.540;8.390;2023-08-08T00:28:52;15.80;99.90
4695;DHT22;2361;49.540;8.390;2023-08-08T00:31:19;15.80;99.90
4695;DHT22;2361;49.540;8.390;2023-08-08T00:33:46;15.70;99.90
4695;DHT22;2361;49.540;8.390;2023-08-08T00:36:13;15.70;99.90
4695;DHT22;2361;49.540;8.390;2023-08-08T00:38:40;15.70;99.90
4695;DHT22;2361;49.540;8.390;2023-08-08T00:41:07;15.70;99.90
4695;DHT22;2361;49.540;8.390;2023-08-08T00:43:34;15.60;99.90
4695;DHT22;2361;49.540;8.390;2023-08-08T00:46:01;15.50;99.90
4695;DHT22;2361;49.540;8.390;2023-08-08T00:48:28;15.50;99.90
4695;DHT22;2361;49.540;8.390;2023-08-08T00:50:55;15.40;99.90
4695;DHT22;2361;49.540;8.390;2023-08-08T00:53:22;15.40;99.90
4695;DHT22;2361;49.540;8.390;2023-08-08T00:55:54;15.30;99.90
4695;DHT22;2361;49.540;8.390;2023-08-08T00:58:21;15.30;99.90
4695;DHT22;2361;49.540;8.390;2023-08-08T01:00:48;15.20;99.90
4695;DHT22;2361;49.540;8.390;2023-08-08T01:03:15;15.20;99.90
4695;DHT22;2361;49.540;8.390;2023-08-08T01:05:47;15.20;99.90
4695;DHT22;2361;49.540;8.390;2023-08-08T01:08:22;15.20;99.90
4695;DHT22;2361;49.540;8.390;2023-08-08T01:10:53;15.20;99.90
4695;DHT22;2361;49.540;8.390;2023-08-08T01:13:22;15.20;99.90
4695;DHT22;2361;49.540;8.390;2023-08-08T01:15:50;15.20;99.90
4695;DHT22;2361;49.540;8.390;2023-08-08T01:18:23;15.30;99.90
4695;DHT22;2361;49.540;8.390;2023-08-08T01:20:51;15.30;99.90
4695;DHT22;2361;49.540;8.390;2023-08-08T01:23:30;15.20;99.90
4695;DHT22;2361;49.540;8.390;2023-08-08T01:26:09;15.20;99.90
4695;DHT22;2361;49.540;8.390;2023-08-08T01:28:37;15.20;99.90
4695;DHT22;2361;49.540;8.390;2023-08-08T01:31:05;15.10;99.90
4695;DHT22;2361;49.540;8.390;2023-08-08T01:33:33;15.10;99.90
4695;DHT22;2361;49.540;8.390;2023-08-08T01:36:04;15.10;99.90
4695;DHT22;2361;49.540;8.390;2023-08-08T01:38:41;15.10;99.90
4695;DHT22;2361;49.540;8.390;2023-08-08T01:41:08;15.00;99.90
4695;DHT22;2361;49.540;8.390;2023-08-08T01:43:38;15.00;99.90
4695;DHT22;2361;49.540;8.390;2023-08-08T01:46:06;14.90;99.90
4695;DHT22;2361;49.540;8.390;2023-08-08T01:48:33;14.90;99.90
4695;DHT22;2361;49.540;8.390;2023-08-08T01:51:00;14.90;99.90
4695;DHT22;2361;49.540;8.390;2023-08-08T01:53:27;14.90;99.90
4695;DHT22;2361;49.540;8.390;2023-08-08T01:55:54;14.90;99.90
4695;DHT22;2361;49.540;8.390;2023-08-08T01:58:21;14.90;99.90
4695;DHT22;2361;49.540;8.390;2023-08-08T02:00:48;14.80;99.90
4695;DHT22;2361;49.540;8.390;2023-08-08T02:03:15;14.80;99.90
4695;DHT22;2361;49.540;8.390;2023-08-08T02:05:42;14.80;99.90
4695;DHT22;2361;49.540;8.390;2023-08-08T02:08:09;14.70;99.90
4695;DHT22;2361;49.540;8.390;2023-08-08T02:10:36;14.70;99.90
4695;DHT22;2361;49.540;8.390;2023-08-08T02:13:03;14.70;99.90
4695;DHT22;2361;49.540;8.390;2023-08-08T02:15:30;14.70;99.90
4695;DHT22;2361;49.540;8.390;2023-08-08T02:17:58;14.70;99.90
4695;DHT22;2361;49.540;8.390;2023-08-08T02:20:26;14.70;99.90
4695;DHT22;2361;49.540;8.390;2023-08-08T02:22:53;14.70;99.90
4695;DHT22;2361;49.540;8.390;2023-08-08T02:25:20;14.70;99.90
4695;DHT22;2361;49.540;8.390;2023-08-08T02:27:47;14.70;99.90
4695;DHT22;2361;49.540;8.390;2023-08-08T02:30:14;14.70;99.90
4695;DHT22;2361;49.540;8.390;2023-08-08T02:32:41;14.80;99.90
4695;DHT22;2361;49.540;8.390;2023-08-08T02:35:08;14.80;99.90
4695;DHT22;2361;49.540;8.390;2023-08-08T02:37:35;14.70;99.90
4695;DHT22;2361;49.540;8.390;2023-08-08T02:40:03;14.70;99.90
4695;DHT22;2361;49.540;8.390;2023-08-08T02:42:31;14.70;99.90
4695;DHT22;2361;49.540;8.390;2023-08-08T02:44:58;14.60;99.90
4695;DHT22;2361;49.540;8.390;2023-08-08T02:47:25;14.60;99.90
4695;DHT22;2361;49.540;8.390;2023-08-08T02:49:52;14.50;99.90
4695;DHT22;2361;49.540;8.390;2023-08-08T02:52:19;14.50;99.90
4695;DHT22;2361;49.540;8.390;2023-08-08T02:54:46;14.40;99.90
4695;DHT22;2361;49.540;8.390;2023-08-08T02:57:13;14.40;99.90
4695;DHT22;2361;49.540;8.390;2023-08-08T02:59:40;14.40;99.90
4695;DHT22;2361;49.540;8.390;2023-08-08T03:02:07;14.40;99.90
4695;DHT22;2361;49.540;8.390;2023-08-08T03:04:34;14.40;99.90
4695;DHT22;2361;49.540;8.390;2023-08-08T03:07:01;14.30;99.90
4695;DHT22;2361;49.540;8.390;2023-08-08T03:09:30;14.30;99.90
4695;DHT22;2361;49.540;8.390;2023-08-08T03:11:57;14.20;99.90
4695;DHT22;2361;49.540;8.390;2023-08-08T03:14:25;14.20;99.90
4695;DHT22;2361;49.540;8.390;2023-08-08T03:16:52;14.10;99.90
4695;DHT22;2361;49.540;8.390;2023-08-08T03:19:18;14.10;99.90
4695;DHT22;2361;49.540;8.390;2023-08-08T03:21:45;14.00;99.90
4695;DHT22;2361;49.540;8.390;2023-08-08T03:24:12;14.00;99.90
4695;DHT22;2361;49.540;8.390;2023-08-08T03:26:39;14.00;99.90
4695;DHT22;2361;49.540;8.390;2023-08-08T03:29:06;14.00;99.90
4695;DHT22;2361;49.540;8.390;2023-08-08T03:31:36;14.00;99.90
4695;DHT22;2361;49.540;8.390;2023-08-08T03:34:03;14.00;99.90
4695;DHT22;2361;49.540;8.390;2023-08-08T03:36:31;13.90;99.90
4695;DHT22;2361;49.540;8.390;2023-08-08T03:38:58;13.90;99.90
4695;DHT22;2361;49.540;8.390;2023-08-08T03:41:25;13.90;99.90
4695;DHT22;2361;49.540;8.390;2023-08-08T03:43:52;13.80;99.90
4695;DHT22;2361;49.540;8.390;2023-08-08T03:46:18;13.80;99.90
4695;DHT22;2361;49.540;8.390;2023-08-08T03:48:45;13.80;99.90
4695;DHT22;2361;49.540;8.390;2023-08-08T03:51:12;13.90;99.90
4695;DHT22;2361;49.540;8.390;2023-08-08T03:53:40;13.90;99.90
4695;DHT22;2361;49.540;8.390;2023-08-08T03:56:07;13.80;99.90
4695;DHT22;2361;49.540;8.390;2023-08-08T03:58:34;13.80;99.90
4695;DHT22;2361;49.540;8.390;2023-08-08T04:01:01;13.80;99.90
4695;DHT22;2361;49.540;8.390;2023-08-08T04:03:28;13.80;99.90
4695;DHT22;2361;49.540;8.390;2023-08-08T04:05:55;13.80;99.90
4695;DHT22;2361;49.540;8.390;2023-08-08T04:08:22;13.80;99.90
4695;DHT22;2361;49.540;8.390;2023-08-08T04:10:49;13.80;99.90
4695;DHT22;2361;49.540;8.390;2023-08-08T04:13:15;13.80;99.90
4695;DHT22;2361;49.540;8.390;2023-08-08T04:15:43;13.80;99.90
4695;DHT22;2361;49.540;8.390;2023-08-08T04:18:11;13.80;99.90
4695;DHT22;2361;49.540;8.390;2023-08-08T04:20:38;13.70;99.90
4695;DHT22;2361;49.540;8.390;2023-08-08T04:23:05;13.70;99.90
4695;DHT22;2361;49.540;8.390;2023-08-08T04:25:32;13.80;99.90
4695;DHT22;2361;49.540;8.390;2023-08-08T04:27:59;13.70;99.90
4695;DHT22;2361;49.540;8.390;2023-08-08T04:30:26;13.70;99.90
4695;DHT22;2361;49.540;8.390;2023-08-08T04:32:53;13.80;99.90
4695;DHT22;2361;49.540;8.390;2023-08-08T04:35:20;13.80;99.90
4695;DHT22;2361;49.540;8.390;2023-08-08T04:37:47;13.90;99.90
4695;DHT22;2361;49.540;8.390;2023-08-08T04:40:14;13.90;99.90
4695;DHT22;2361;49.540;8.390;2023-08-08T04:42:41;14.10;99.90
4695;DHT22;2361;49.540;8.390;2023-08-08T04:45:08;14.20;99.90
4695;DHT22;2361;49.540;8.390;2023-08-08T04:47:35;14.30;99.90
4695;DHT22;2361;49.540;8.390;2023-08-08T04:50:03;14.50;99.90
4695;DHT22;2361;49.540;8.390;2023-08-08T04:52:30;14.70;99.90
4695;DHT22;2361;49.540;8.390;2023-08-08T04:54:56;14.80;99.90
4695;DHT22;2361;49.540;8.390;2023-08-08T04:57:23;14.90;99.90
4695;DHT22;2361;49.540;8.390;2023-08-08T04:59:50;14.90;99.90
4695;DHT22;2361;49.540;8.390;2023-08-08T05:02:17;14.90;99.90
4695;DHT22;2361;49.540;8.390;2023-08-08T05:04:44;15.00;99.90
4695;DHT22;2361;49.540;8.390;2023-08-08T05:07:11;15.10;99.90
4695;DHT22;2361;49.540;8.390;2023-08-08T05:09:38;15.20;99.90
4695;DHT22;2361;49.540;8.390;2023-08-08T05:12:05;15.40;99.90
4695;DHT22;2361;49.540;8.390;2023-08-08T05:14:32;15.50;99.90
4695;DHT22;2361;49.540;8.390;2023-08-08T05:17:01;15.70;99.90
4695;DHT22;2361;49.540;8.390;2023-08-08T05:19:28;15.80;99.90
4695;DHT22;2361;49.540;8.390;2023-08-08T05:21:55;16.00;99.90
4695;DHT22;2361;49.540;8.390;2023-08-08T05:24:23;16.20;99.90
4695;DHT22;2361;49.540;8.390;2023-08-08T05:26:50;16.30;99.90
4695;DHT22;2361;49.540;8.390;2023-08-08T05:29:17;16.40;99.90
4695;DHT22;2361;49.540;8.390;2023-08-08T05:31:43;16.60;99.90
4695;DHT22;2361;49.540;8.390;2023-08-08T05:34:10;16.80;99.90
4695;DHT22;2361;49.540;8.390;2023-08-08T05:36:37;17.00;99.90
4695;DHT22;2361;49.540;8.390;2023-08-08T05:39:04;17.40;99.90
4695;DHT22;2361;49.540;8.390;2023-08-08T05:41:33;17.50;99.90
4695;DHT22;2361;49.540;8.390;2023-08-08T05:44:00;17.70;99.90
4695;DHT22;2361;49.540;8.390;2023-08-08T05:46:27;18.00;99.90
4695;DHT22;2361;49.540;8.390;2023-08-08T05:48:54;18.20;99.90
4695;DHT22;2361;49.540;8.390;2023-08-08T05:51:21;18.50;99.90
4695;DHT22;2361;49.540;8.390;2023-08-08T05:53:48;18.90;99.90
4695;DHT22;2361;49.540;8.390;2023-08-08T05:56:15;19.20;99.90
4695;DHT22;2361;49.540;8.390;2023-08-08T05:58:42;19.70;99.90
4695;DHT22;2361;49.540;8.390;2023-08-08T06:01:09;20.10;99.90
4695;DHT22;2361;49.540;8.390;2023-08-08T06:03:38;20.50;99.90
4695;DHT22;2361;49.540;8.390;2023-08-08T06:06:05;21.00;99.90
4695;DHT22;2361;49.540;8.390;2023-08-08T06:08:33;21.50;99.90
4695;DHT22;2361;49.540;8.390;2023-08-08T06:11:00;21.90;99.90
4695;DHT22;2361;49.540;8.390;2023-08-08T06:13:27;22.50;99.90
4695;DHT22;2361;49.540;8.390;2023-08-08T06:15:53;23.10;99.90
4695;DHT22;2361;49.540;8.390;2023-08-08T06:18:20;23.50;99.90
4695;DHT22;2361;49.540;8.390;2023-08-08T06:20:47;23.90;99.90
4695;DHT22;2361;49.540;8.390;2023-08-08T06:23:14;24.30;99.90
4695;DHT22;2361;49.540;8.390;2023-08-08T06:25:42;24.80;99.90
4695;DHT22;2361;49.540;8.390;2023-08-08T06:28:09;25.10;99.30
4695;DHT22;2361;49.540;8.390;2023-08-08T06:30:36;24.90;99.00
4695;DHT22;2361;49.540;8.390;2023-08-08T06:33:03;24.70;98.70
4695;DHT22;2361;49.540;8.390;2023-08-08T06:35:30;24.70;98.90
4695;DHT22;2361;49.540;8.390;2023-08-08T06:37:57;25.20;98.60
4695;DHT22;2361;49.540;8.390;2023-08-08T06:40:24;26.00;97.40
4695;DHT22;2361;49.540;8.390;2023-08-08T06:42:51;26.90;95.90
4695;DHT22;2361;49.540;8.390;2023-08-08T06:45:18;27.60;94.10
4695;DHT22;2361;49.540;8.390;2023-08-08T06:47:45;28.10;92.50
4695;DHT22;2361;49.540;8.390;2023-08-08T06:50:13;28.40;91.20
4695;DHT22;2361;49.540;8.390;2023-08-08T06:52:40;28.50;90.20
4695;DHT22;2361;49.540;8.390;2023-08-08T06:55:07;28.80;92.70
4695;DHT22;2361;49.540;8.390;2023-08-08T06:57:34;29.20;93.40
4695;DHT22;2361;49.540;8.390;2023-08-08T07:00:02;29.70;84.10
4695;DHT22;2361;49.540;8.390;2023-08-08T07:02:32;30.10;81.20
4695;DHT22;2361;49.540;8.390;2023-08-08T07:04:59;30.40;78.80
4695;DHT22;2361;49.540;8.390;2023-08-08T07:07:27;30.80;76.20
4695;DHT22;2361;49.540;8.390;2023-08-08T07:09:55;31.10;72.40
4695;DHT22;2361;49.540;8.390;2023-08-08T07:12:22;31.50;70.70
4695;DHT22;2361;49.540;8.390;2023-08-08T07:14:49;31.80;69.30
4695;DHT22;2361;49.540;8.390;2023-08-08T07:17:16;32.20;67.40
4695;DHT22;2361;49.540;8.390;2023-08-08T07:19:43;32.60;65.50
4695;DHT22;2361;49.540;8.390;2023-08-08T07:22:10;32.90;64.00
4695;DHT22;2361;49.540;8.390;2023-08-08T07:24:37;33.20;63.60
4695;DHT22;2361;49.540;8.390;2023-08-08T07:27:05;33.50;62.00
4695;DHT22;2361;49.540;8.390;2023-08-08T07:29:32;33.90;61.00
4695;DHT22;2361;49.540;8.390;2023-08-08T07:32:03;34.30;59.50
4695;DHT22;2361;49.540;8.390;2023-08-08T07:34:31;34.50;58.20
4695;DHT22;2361;49.540;8.390;2023-08-08T07:36:59;34.70;58.00
4695;DHT22;2361;49.540;8.390;2023-08-08T07:39:26;34.00;56.80
4695;DHT22;2361;49.540;8.390;2023-08-08T07:41:53;33.70;57.60
4695;DHT22;2361;49.540;8.390;2023-08-08T07:44:20;33.70;57.60
4695;DHT22;2361;49.540;8.390;2023-08-08T07:46:47;33.80;57.00
4695;DHT22;2361;49.540;8.390;2023-08-08T07:49:14;33.90;55.90
4695;DHT22;2361;49.540;8.390;2023-08-08T07:51:41;33.70;56.40
4695;DHT22;2361;49.540;8.390;2023-08-08T07:54:08;33.10;56.80
4695;DHT22;2361;49.540;8.390;2023-08-08T07:56:37;32.50;57.50
4695;DHT22;2361;49.540;8.390;2023-08-08T07:59:04;32.00;57.70
4695;DHT22;2361;49.540;8.390;2023-08-08T08:01:31;31.80;57.80
4695;DHT22;2361;49.540;8.390;2023-08-08T08:03:58;31.60;58.80
4695;DHT22;2361;49.540;8.390;2023-08-08T08:06:25;31.60;59.50
4695;DHT22;2361;49.540;8.390;2023-08-08T08:08:53;31.70;59.30
4695;DHT22;2361;49.540;8.390;2023-08-08T08:11:20;31.60;59.10
4695;DHT22;2361;49.540;8.390;2023-08-08T08:13:47;31.20;59.20
4695;DHT22;2361;49.540;8.390;2023-08-08T08:16:14;31.10;59.70
4695;DHT22;2361;49.540;8.390;2023-08-08T08:18:41;31.10;59.20
4695;DHT22;2361;49.540;8.390;2023-08-08T08:21:08;31.50;58.40
4695;DHT22;2361;49.540;8.390;2023-08-08T08:23:35;31.70;56.30
4695;DHT22;2361;49.540;8.390;2023-08-08T08:26:02;31.40;55.70
4695;DHT22;2361;49.540;8.390;2023-08-08T08:28:29;31.60;56.00
4695;DHT22;2361;49.540;8.390;2023-08-08T08:30:56;32.20;55.90
4695;DHT22;2361;49.540;8.390;2023-08-08T08:33:23;33.00;54.90
4695;DHT22;2361;49.540;8.390;2023-08-08T08:35:50;33.40;53.40
4695;DHT22;2361;49.540;8.390;2023-08-08T08:38:17;33.50;53.00
4695;DHT22;2361;49.540;8.390;2023-08-08T08:40:45;33.30;53.10
4695;DHT22;2361;49.540;8.390;2023-08-08T08:43:15;33.00;53.90
4695;DHT22;2361;49.540;8.390;2023-08-08T08:45:48;32.70;53.20
4695;DHT22;2361;49.540;8.390;2023-08-08T08:48:18;32.90;53.20
4695;DHT22;2361;49.540;8.390;2023-08-08T08:50:48;32.80;52.60
4695;DHT22;2361;49.540;8.390;2023-08-08T08:53:15;32.80;52.40
4695;DHT22;2361;49.540;8.390;2023-08-08T08:55:44;32.90;52.40
4695;DHT22;2361;49.540;8.390;2023-08-08T08:58:14;33.20;52.10
4695;DHT22;2361;49.540;8.390;2023-08-08T09:00:44;32.70;51.10
4695;DHT22;2361;49.540;8.390;2023-08-08T09:03:13;31.90;51.90
4695;DHT22;2361;49.540;8.390;2023-08-08T09:05:41;31.40;52.60
4695;DHT22;2361;49.540;8.390;2023-08-08T09:08:08;31.00;53.20
4695;DHT22;2361;49.540;8.390;2023-08-08T09:10:38;30.50;54.00
4695;DHT22;2361;49.540;8.390;2023-08-08T09:13:06;29.90;54.50
4695;DHT22;2361;49.540;8.390;2023-08-08T09:15:33;29.60;55.60
4695;DHT22;2361;49.540;8.390;2023-08-08T09:18:01;29.30;55.90
4695;DHT22;2361;49.540;8.390;2023-08-08T09:20:28;29.00;56.20
4695;DHT22;2361;49.540;8.390;2023-08-08T09:22:56;28.80;57.20
4695;DHT22;2361;49.540;8.390;2023-08-08T09:25:23;28.50;56.90
4695;DHT22;2361;49.540;8.390;2023-08-08T09:27:52;28.20;57.60
4695;DHT22;2361;49.540;8.390;2023-08-08T09:30:22;27.80;57.00
4695;DHT22;2361;49.540;8.390;2023-08-08T09:32:49;26.90;57.70
4695;DHT22;2361;49.540;8.390;2023-08-08T09:35:16;26.30;59.10
4695;DHT22;2361;49.540;8.390;2023-08-08T09:37:43;26.00;59.80
4695;DHT22;2361;49.540;8.390;2023-08-08T09:40:10;25.60;59.90
4695;DHT22;2361;49.540;8.390;2023-08-08T09:42:40;25.30;61.00
4695;DHT22;2361;49.540;8.390;2023-08-08T09:45:08;25.20;61.80
4695;DHT22;2361;49.540;8.390;2023-08-08T09:47:37;25.20;62.00
4695;DHT22;2361;49.540;8.390;2023-08-08T09:50:05;25.00;62.60
4695;DHT22;2361;49.540;8.390;2023-08-08T09:52:34;25.00;62.90
4695;DHT22;2361;49.540;8.390;2023-08-08T09:55:02;25.00;62.30
4695;DHT22;2361;49.540;8.390;2023-08-08T09:57:30;25.00;62.40
4695;DHT22;2361;49.540;8.390;2023-08-08T09:59:57;25.00;62.70
4695;DHT22;2361;49.540;8.390;2023-08-08T10:02:25;25.10;62.90
4695;DHT22;2361;49.540;8.390;2023-08-08T10:04:53;25.00;62.00
4695;DHT22;2361;49.540;8.390;2023-08-08T10:07:22;24.90;62.50
4695;DHT22;2361;49.540;8.390;2023-08-08T10:09:49;25.10;62.70
4695;DHT22;2361;49.540;8.390;2023-08-08T10:12:16;25.50;62.50
4695;DHT22;2361;49.540;8.390;2023-08-08T10:14:45;26.00;61.60
4695;DHT22;2361;49.540;8.390;2023-08-08T10:17:15;26.60;61.10
4695;DHT22;2361;49.540;8.390;2023-08-08T10:19:55;26.90;59.90
4695;DHT22;2361;49.540;8.390;2023-08-08T10:22:24;27.30;59.90
4695;DHT22;2361;49.540;8.390;2023-08-08T10:24:52;27.50;59.70
4695;DHT22;2361;49.540;8.390;2023-08-08T10:27:34;27.40;59.40
4695;DHT22;2361;49.540;8.390;2023-08-08T10:30:07;26.90;60.40
4695;DHT22;2361;49.540;8.390;2023-08-08T10:32:45;26.50;61.30
4695;DHT22;2361;49.540;8.390;2023-08-08T10:35:15;26.20;61.10
4695;DHT22;2361;49.540;8.390;2023-08-08T10:37:52;25.90;61.20
4695;DHT22;2361;49.540;8.390;2023-08-08T10:40:20;25.70;62.00
4695;DHT22;2361;49.540;8.390;2023-08-08T10:42:47;25.60;62.30
4695;DHT22;2361;49.540;8.390;2023-08-08T10:45:15;25.50;62.60
4695;DHT22;2361;49.540;8.390;2023-08-08T10:47:43;25.50;62.70
4695;DHT22;2361;49.540;8.390;2023-08-08T10:50:14;25.50;62.70
4695;DHT22;2361;49.540;8.390;2023-08-08T10:55:22;25.50;62.50
4695;DHT22;2361;49.540;8.390;2023-08-08T10:58:06;25.50;62.70
4695;DHT22;2361;49.540;8.390;2023-08-08T11:00:35;25.50;62.40
4695;DHT22;2361;49.540;8.390;2023-08-08T11:03:03;25.60;63.00
4695;DHT22;2361;49.540;8.390;2023-08-08T11:05:35;25.50;62.20
4695;DHT22;2361;49.540;8.390;2023-08-08T11:08:04;25.50;62.70
4695;DHT22;2361;49.540;8.390;2023-08-08T11:10:39;25.50;63.20
4695;DHT22;2361;49.540;8.390;2023-08-08T11:13:07;25.50;63.50
4695;DHT22;2361;49.540;8.390;2023-08-08T11:15:36;25.60;62.80
4695;DHT22;2361;49.540;8.390;2023-08-08T11:18:05;25.60;61.50
4695;DHT22;2361;49.540;8.390;2023-08-08T11:20:33;25.60;61.30
4695;DHT22;2361;49.540;8.390;2023-08-08T11:23:01;25.50;62.00
4695;DHT22;2361;49.540;8.390;2023-08-08T11:25:30;25.40;61.80
4695;DHT22;2361;49.540;8.390;2023-08-08T11:27:58;25.40;62.00
4695;DHT22;2361;49.540;8.390;2023-08-08T11:30:32;25.30;62.10
4695;DHT22;2361;49.540;8.390;2023-08-08T11:33:01;25.20;62.00
4695;DHT22;2361;49.540;8.390;2023-08-08T11:35:31;25.20;61.60
4695;DHT22;2361;49.540;8.390;2023-08-08T11:37:59;25.20;62.00
4695;DHT22;2361;49.540;8.390;2023-08-08T11:40:28;25.20;63.20
4695;DHT22;2361;49.540;8.390;2023-08-08T11:42:56;25.10;62.90
4695;DHT22;2361;49.540;8.390;2023-08-08T11:45:24;25.10;63.50
4695;DHT22;2361;49.540;8.390;2023-08-08T11:47:54;25.10;63.00
4695;DHT22;2361;49.540;8.390;2023-08-08T11:50:24;25.20;62.90
4695;DHT22;2361;49.540;8.390;2023-08-08T11:52:52;25.20;62.40
4695;DHT22;2361;49.540;8.390;2023-08-08T11:55:21;25.20;62.10
4695;DHT22;2361;49.540;8.390;2023-08-08T11:57:55;25.20;62.20
4695;DHT22;2361;49.540;8.390;2023-08-08T12:00:29;25.20;61.90
4695;DHT22;2361;49.540;8.390;2023-08-08T12:02:58;25.20;62.90
4695;DHT22;2361;49.540;8.390;2023-08-08T12:05:25;25.20;61.80
4695;DHT22;2361;49.540;8.390;2023-08-08T12:07:53;25.20;61.30
4695;DHT22;2361;49.540;8.390;2023-08-08T12:10:21;25.20;60.90
4695;DHT22;2361;49.540;8.390;2023-08-08T12:12:56;25.10;60.90
4695;DHT22;2361;49.540;8.390;2023-08-08T12:15:33;25.10;61.10
4695;DHT22;2361;49.540;8.390;2023-08-08T12:18:02;25.00;61.50
4695;DHT22;2361;49.540;8.390;2023-08-08T12:20:30;25.10;61.70
4695;DHT22;2361;49.540;8.390;2023-08-08T12:22:58;25.10;60.40
4695;DHT22;2361;49.540;8.390;2023-08-08T12:25:25;25.20;61.50
4695;DHT22;2361;49.540;8.390;2023-08-08T12:27:53;25.10;61.30
4695;DHT22;2361;49.540;8.390;2023-08-08T12:30:20;25.00;61.20
4695;DHT22;2361;49.540;8.390;2023-08-08T12:32:46;25.10;61.10
4695;DHT22;2361;49.540;8.390;2023-08-08T12:35:14;25.10;61.00
4695;DHT22;2361;49.540;8.390;2023-08-08T12:37:42;25.10;60.50
4695;DHT22;2361;49.540;8.390;2023-08-08T12:40:10;25.10;60.10
4695;DHT22;2361;49.540;8.390;2023-08-08T12:42:37;25.10;59.80
4695;DHT22;2361;49.540;8.390;2023-08-08T12:45:05;25.20;59.80
4695;DHT22;2361;49.540;8.390;2023-08-08T12:47:33;25.10;59.70
4695;DHT22;2361;49.540;8.390;2023-08-08T12:50:04;25.00;59.60
4695;DHT22;2361;49.540;8.390;2023-08-08T12:52:31;24.80;59.60
4695;DHT22;2361;49.540;8.390;2023-08-08T12:54:58;24.70;59.60
4695;DHT22;2361;49.540;8.390;2023-08-08T12:57:26;24.60;59.70
4695;DHT22;2361;49.540;8.390;2023-08-08T12:59:53;24.60;59.60
4695;DHT22;2361;49.540;8.390;2023-08-08T13:02:20;24.50;59.70
4695;DHT22;2361;49.540;8.390;2023-08-08T13:04:47;24.40;59.80
4695;DHT22;2361;49.540;8.390;2023-08-08T13:07:14;24.40;60.10
4695;DHT22;2361;49.540;8.390;2023-08-08T13:09:41;24.40;60.50
4695;DHT22;2361;49.540;8.390;2023-08-08T13:12:08;24.40;60.50
4695;DHT22;2361;49.540;8.390;2023-08-08T13:14:35;24.40;60.50
4695;DHT22;2361;49.540;8.390;2023-08-08T13:17:02;24.40;62.10
4695;DHT22;2361;49.540;8.390;2023-08-08T13:19:29;24.50;61.50
4695;DHT22;2361;49.540;8.390;2023-08-08T13:21:56;24.50;61.60
4695;DHT22;2361;49.540;8.390;2023-08-08T13:24:23;24.50;61.90
4695;DHT22;2361;49.540;8.390;2023-08-08T13:26:50;24.50;61.90
4695;DHT22;2361;49.540;8.390;2023-08-08T13:29:17;24.60;61.90
4695;DHT22;2361;49.540;8.390;2023-08-08T13:31:44;24.70;62.40
4695;DHT22;2361;49.540;8.390;2023-08-08T13:34:11;24.70;62.60
4695;DHT22;2361;49.540;8.390;2023-08-08T13:36:38;24.70;62.90
4695;DHT22;2361;49.540;8.390;2023-08-08T13:39:05;24.70;63.10
4695;DHT22;2361;49.540;8.390;2023-08-08T13:41:32;24.70;63.10
4695;DHT22;2361;49.540;8.390;2023-08-08T13:43:59;24.80;63.40
4695;DHT22;2361;49.540;8.390;2023-08-08T13:46:26;24.80;62.60
4695;DHT22;2361;49.540;8.390;2023-08-08T13:48:53;24.80;62.90
4695;DHT22;2361;49.540;8.390;2023-08-08T13:51:20;24.80;62.90
4695;DHT22;2361;49.540;8.390;2023-08-08T13:53:47;24.90;63.10
4695;DHT22;2361;49.540;8.390;2023-08-08T13:56:16;25.00;63.10
4695;DHT22;2361;49.540;8.390;2023-08-08T13:58:44;25.00;62.70
4695;DHT22;2361;49.540;8.390;2023-08-08T14:01:11;24.90;62.70
4695;DHT22;2361;49.540;8.390;2023-08-08T14:03:38;24.90;63.30
4695;DHT22;2361;49.540;8.390;2023-08-08T14:06:05;24.80;63.60
4695;DHT22;2361;49.540;8.390;2023-08-08T14:08:32;24.80;63.30
4695;DHT22;2361;49.540;8.390;2023-08-08T14:10:59;24.80;63.60
4695;DHT22;2361;49.540;8.390;2023-08-08T14:13:26;24.70;63.80
4695;DHT22;2361;49.540;8.390;2023-08-08T14:15:53;24.70;64.20
4695;DHT22;2361;49.540;8.390;2023-08-08T14:18:20;24.60;63.80
4695;DHT22;2361;49.540;8.390;2023-08-08T14:20:47;24.60;64.10
4695;DHT22;2361;49.540;8.390;2023-08-08T14:23:14;24.60;64.50
4695;DHT22;2361;49.540;8.390;2023-08-08T14:25:42;24.60;64.30
4695;DHT22;2361;49.540;8.390;2023-08-08T14:28:08;24.50;64.60
4695;DHT22;2361;49.540;8.390;2023-08-08T14:30:35;24.50;64.70
4695;DHT22;2361;49.540;8.390;2023-08-08T14:33:03;24.40;64.60
4695;DHT22;2361;49.540;8.390;2023-08-08T14:35:30;24.40;65.00
4695;DHT22;2361;49.540;8.390;2023-08-08T14:37:57;24.30;65.20
4695;DHT22;2361;49.540;8.390;2023-08-08T14:40:24;24.20;65.70
4695;DHT22;2361;49.540;8.390;2023-08-08T14:42:51;24.10;66.40
4695;DHT22;2361;49.540;8.390;2023-08-08T14:45:21;24.00;67.20
4695;DHT22;2361;49.540;8.390;2023-08-08T14:47:50;23.90;67.30
4695;DHT22;2361;49.540;8.390;2023-08-08T14:50:17;23.90;67.80
4695;DHT22;2361;49.540;8.390;2023-08-08T14:52:44;23.80;68.10
4695;DHT22;2361;49.540;8.390;2023-08-08T14:55:11;23.80;68.40
4695;DHT22;2361;49.540;8.390;2023-08-08T14:57:38;23.70;68.80
4695;DHT22;2361;49.540;8.390;2023-08-08T15:00:06;23.60;68.90
4695;DHT22;2361;49.540;8.390;2023-08-08T15:02:35;23.50;69.50
4695;DHT22;2361;49.540;8.390;2023-08-08T15:05:03;23.40;69.80
4695;DHT22;2361;49.540;8.390;2023-08-08T15:07:30;23.40;70.20
4695;DHT22;2361;49.540;8.390;2023-08-08T15:09:57;23.30;70.50
4695;DHT22;2361;49.540;8.390;2023-08-08T15:12:24;23.30;71.00
4695;DHT22;2361;49.540;8.390;2023-08-08T15:14:50;23.20;71.00
4695;DHT22;2361;49.540;8.390;2023-08-08T15:17:18;23.10;70.80
4695;DHT22;2361;49.540;8.390;2023-08-08T15:19:45;23.00;71.00
4695;DHT22;2361;49.540;8.390;2023-08-08T15:22:12;23.00;71.50
4695;DHT22;2361;49.540;8.390;2023-08-08T15:24:39;22.90;71.90
4695;DHT22;2361;49.540;8.390;2023-08-08T15:27:06;23.00;72.00
4695;DHT22;2361;49.540;8.390;2023-08-08T15:29:33;23.00;72.20
4695;DHT22;2361;49.540;8.390;2023-08-08T15:31:59;23.00;72.40
4695;DHT22;2361;49.540;8.390;2023-08-08T15:34:26;23.00;72.70
4695;DHT22;2361;49.540;8.390;2023-08-08T15:36:53;23.10;73.50
4695;DHT22;2361;49.540;8.390;2023-08-08T15:39:23;23.10;72.30
4695;DHT22;2361;49.540;8.390;2023-08-08T15:41:50;23.20;72.30
4695;DHT22;2361;49.540;8.390;2023-08-08T15:44:17;23.20;72.40
4695;DHT22;2361;49.540;8.390;2023-08-08T15:46:44;23.20;72.60
4695;DHT22;2361;49.540;8.390;2023-08-08T15:49:11;23.20;72.20
4695;DHT22;2361;49.540;8.390;2023-08-08T15:51:40;23.10;72.70
4695;DHT22;2361;49.540;8.390;2023-08-08T15:54:07;23.00;73.10
4695;DHT22;2361;49.540;8.390;2023-08-08T15:56:34;22.90;73.50
4695;DHT22;2361;49.540;8.390;2023-08-08T15:59:04;22.80;74.20
4695;DHT22;2361;49.540;8.390;2023-08-08T16:01:31;22.80;74.80
4695;DHT22;2361;49.540;8.390;2023-08-08T16:03:58;22.70;75.10
4695;DHT22;2361;49.540;8.390;2023-08-08T16:06:25;22.70;75.70
4695;DHT22;2361;49.540;8.390;2023-08-08T16:08:52;22.60;76.00